createdAt,value
2018-12-05T00:00:06.992Z,14.50
2018-12-05T00:02:35.395Z,16.15
2018-12-05T00:05:04.060Z,15.40
2018-12-05T00:07:32.484Z,16.00
2018-12-05T00:10:00.922Z,14.23
2018-12-05T00:12:29.368Z,15.35
2018-12-05T00:14:57.775Z,16.30
2018-12-05T00:17:26.224Z,13.85
2018-12-05T00:19:54.637Z,15.43
2018-12-05T00:22:23.055Z,16.32
2018-12-05T00:24:51.468Z,15.60
2018-12-05T00:27:20.088Z,15.20
2018-12-05T00:29:48.516Z,13.25
2018-12-05T00:32:16.927Z,14.85
2018-12-05T00:34:45.342Z,18.15
2018-12-05T00:37:13.756Z,15.75
2018-12-05T00:39:42.177Z,15.43
2018-12-05T00:42:10.724Z,16.02
2018-12-05T00:44:39.156Z,16.67
2018-12-05T00:47:09.504Z,16.70
2018-12-05T00:49:37.927Z,17.62
2018-12-05T00:52:06.710Z,17.37
2018-12-05T00:54:35.225Z,19.35
2018-12-05T00:57:03.637Z,20.15
2018-12-05T00:59:32.063Z,17.75
2018-12-05T01:02:00.591Z,18.87
2018-12-05T01:04:29.155Z,20.08
2018-12-05T01:06:57.547Z,17.40
2018-12-05T01:09:25.986Z,19.27
2018-12-05T01:11:54.403Z,19.82
2018-12-05T01:14:22.841Z,18.10
2018-12-05T01:16:51.257Z,19.35
2018-12-05T01:19:19.673Z,18.95
2018-12-05T01:21:48.114Z,18.75
2018-12-05T01:24:16.520Z,19.50
2018-12-05T01:26:44.944Z,21.17
2018-12-05T01:29:13.400Z,18.62
2018-12-05T01:31:41.832Z,20.35
2018-12-05T01:34:10.249Z,20.85
2018-12-05T01:36:38.641Z,16.10
2018-12-05T01:39:07.987Z,21.10
2018-12-05T01:41:36.384Z,22.02
2018-12-05T01:44:05.192Z,20.92
2018-12-05T01:46:33.599Z,22.73
2018-12-05T01:49:02.048Z,20.32
2018-12-05T01:51:30.453Z,21.15
2018-12-05T01:53:58.855Z,21.23
2018-12-05T01:56:27.282Z,21.50
2018-12-05T01:58:55.803Z,22.70
2018-12-05T02:01:24.224Z,22.05
2018-12-05T02:03:53.292Z,22.17
2018-12-05T02:06:21.936Z,22.70
2018-12-05T02:08:50.423Z,25.25
2018-12-05T02:11:18.873Z,24.63
2018-12-05T02:13:47.332Z,20.52
2018-12-05T02:16:15.727Z,22.77
2018-12-05T02:18:44.175Z,21.70
2018-12-05T02:21:12.581Z,26.50
2018-12-05T02:23:41.029Z,24.85
2018-12-05T02:26:09.448Z,23.18
2018-12-05T02:28:37.880Z,26.00
2018-12-05T02:31:06.322Z,24.18
2018-12-05T02:33:34.728Z,26.70
2018-12-05T02:36:03.159Z,23.18
2018-12-05T02:38:31.559Z,25.17
2018-12-05T02:41:00.005Z,24.05
2018-12-05T02:43:28.532Z,19.98
2018-12-05T02:45:56.954Z,26.20
2018-12-05T02:48:25.378Z,21.62
2018-12-05T02:50:53.788Z,24.20
2018-12-05T02:53:22.191Z,23.32
2018-12-05T02:55:50.630Z,25.10
2018-12-05T02:58:19.047Z,21.60
2018-12-05T03:00:47.565Z,22.10
2018-12-05T03:03:15.983Z,20.43
2018-12-05T03:05:44.403Z,19.77
2018-12-05T03:08:12.951Z,20.23
2018-12-05T03:10:41.351Z,21.20
2018-12-05T03:13:09.782Z,21.00
2018-12-05T03:15:38.216Z,20.65
2018-12-05T03:18:06.639Z,21.10
2018-12-05T03:20:35.108Z,21.65
2018-12-05T03:23:03.494Z,19.95
2018-12-05T03:25:31.932Z,21.75
2018-12-05T03:28:00.319Z,21.90
2018-12-05T03:30:28.719Z,23.30
2018-12-05T03:32:57.464Z,23.22
2018-12-05T03:35:31.032Z,23.25
2018-12-05T03:37:59.520Z,22.85
2018-12-05T03:40:27.936Z,22.95
2018-12-05T03:42:56.375Z,24.00
2018-12-05T03:45:24.800Z,24.95
2018-12-05T03:47:53.325Z,29.12
2018-12-05T03:50:21.760Z,28.12
2018-12-05T03:52:50.341Z,28.62
2018-12-05T03:55:20.188Z,29.95
2018-12-05T03:57:48.822Z,26.87
2018-12-05T04:00:17.227Z,28.80
2018-12-05T04:02:45.652Z,28.83
2018-12-05T04:05:14.052Z,26.97
2018-12-05T04:07:42.460Z,27.40
2018-12-05T04:10:10.895Z,29.60
2018-12-05T04:12:40.746Z,23.30
2018-12-05T04:15:09.598Z,26.52
2018-12-05T04:17:38.004Z,23.10
2018-12-05T04:20:06.558Z,25.23
2018-12-05T04:22:34.972Z,23.77
2018-12-05T04:25:03.512Z,24.35
2018-12-05T04:27:32.089Z,24.63
2018-12-05T04:30:00.505Z,23.83
2018-12-05T04:32:28.909Z,22.37
2018-12-05T04:34:57.323Z,25.40
2018-12-05T04:37:25.765Z,24.98
2018-12-05T04:39:54.212Z,22.05
2018-12-05T04:42:22.613Z,24.18
2018-12-05T04:44:51.057Z,23.87
2018-12-05T04:47:19.476Z,21.00
2018-12-05T04:49:47.892Z,22.80
2018-12-05T04:52:16.327Z,19.65
2018-12-05T04:54:44.725Z,22.48
2018-12-05T04:57:13.165Z,21.75
2018-12-05T04:59:41.565Z,21.02
2018-12-05T05:02:10.045Z,20.00
2018-12-05T05:04:38.453Z,20.45
2018-12-05T05:07:07.156Z,18.85
2018-12-05T05:09:35.699Z,22.30
2018-12-05T05:12:04.119Z,19.30
2018-12-05T05:14:32.542Z,17.32
2018-12-05T05:17:00.949Z,20.48
2018-12-05T05:19:29.381Z,18.55
2018-12-05T05:21:57.783Z,20.05
2018-12-05T05:24:26.215Z,17.05
2018-12-05T05:26:54.626Z,16.73
2018-12-05T05:29:23.057Z,14.78
2018-12-05T05:31:51.496Z,17.05
2018-12-05T05:34:19.908Z,17.12
2018-12-05T05:36:48.326Z,13.53
2018-12-05T05:39:16.760Z,16.02
2018-12-05T05:41:45.171Z,14.07
2018-12-05T05:44:13.568Z,14.07
2018-12-05T05:46:41.983Z,15.68
2018-12-05T05:49:10.484Z,14.35
2018-12-05T05:51:38.900Z,10.78
2018-12-05T05:54:07.299Z,14.53
2018-12-05T05:56:35.727Z,13.65
2018-12-05T05:59:04.259Z,14.90
2018-12-05T06:01:32.676Z,14.28
2018-12-05T06:04:01.115Z,15.35
2018-12-05T06:06:29.567Z,16.10
2018-12-05T06:08:57.976Z,13.98
2018-12-05T06:11:26.373Z,16.10
2018-12-05T06:13:54.793Z,15.10
2018-12-05T06:16:23.201Z,14.63
2018-12-05T06:18:51.613Z,14.47
2018-12-05T06:21:20.012Z,14.53
2018-12-05T06:23:48.419Z,14.43
2018-12-05T06:26:16.863Z,12.78
2018-12-05T06:28:45.303Z,13.03
2018-12-05T06:31:13.691Z,14.30
2018-12-05T06:33:42.096Z,14.40
2018-12-05T06:36:10.531Z,12.93
2018-12-05T06:38:38.967Z,13.20
2018-12-05T06:41:07.377Z,12.47
2018-12-05T06:43:35.827Z,11.63
2018-12-05T06:46:04.267Z,11.88
2018-12-05T06:48:32.694Z,10.95
2018-12-05T06:51:01.136Z,13.13
2018-12-05T06:53:29.548Z,12.93
2018-12-05T06:55:57.973Z,13.48
2018-12-05T06:58:26.391Z,13.30
2018-12-05T07:00:54.979Z,13.32
2018-12-05T07:03:23.394Z,14.40
2018-12-05T07:05:51.820Z,11.83
2018-12-05T07:08:21.155Z,13.10
2018-12-05T07:10:49.582Z,11.50
2018-12-05T07:13:17.989Z,11.90
2018-12-05T07:15:46.434Z,11.65
2018-12-05T07:18:14.873Z,11.15
2018-12-05T07:20:43.296Z,12.28
2018-12-05T07:23:11.704Z,11.80
2018-12-05T07:25:41.104Z,11.50
2018-12-05T07:28:09.527Z,12.58
2018-12-05T07:30:37.923Z,12.50
2018-12-05T07:33:06.499Z,11.12
2018-12-05T07:35:35.048Z,12.00
2018-12-05T07:38:03.490Z,10.90
2018-12-05T07:40:31.908Z,10.18
2018-12-05T07:43:00.331Z,12.40
2018-12-05T07:45:29.967Z,11.15
2018-12-05T07:47:58.391Z,8.58
2018-12-05T07:50:26.820Z,10.90
2018-12-05T07:52:55.286Z,10.00
2018-12-05T07:55:23.687Z,9.40
2018-12-05T07:57:52.166Z,9.53
2018-12-05T08:00:20.569Z,9.90
2018-12-05T08:02:49.755Z,10.70
2018-12-05T08:05:18.358Z,11.00
2018-12-05T08:07:47.836Z,8.75
2018-12-05T08:10:16.335Z,10.40
2018-12-05T08:12:44.759Z,11.08
2018-12-05T08:15:13.180Z,8.60
2018-12-05T08:17:41.571Z,6.50
2018-12-05T08:20:10.102Z,9.93
2018-12-05T08:22:39.509Z,10.72
2018-12-05T08:25:08.072Z,9.68
2018-12-05T08:27:36.493Z,9.95
2018-12-05T08:30:05.476Z,9.48
2018-12-05T08:32:33.891Z,8.75
2018-12-05T08:35:02.461Z,9.63
2018-12-05T08:37:30.994Z,10.20
2018-12-05T08:39:59.457Z,10.80
2018-12-05T08:42:28.197Z,9.75
2018-12-05T08:44:56.684Z,10.00
2018-12-05T08:47:25.115Z,8.78
2018-12-05T08:49:53.661Z,9.53
2018-12-05T08:52:22.094Z,9.30
2018-12-05T08:54:50.531Z,7.58
2018-12-05T08:57:18.922Z,9.20
2018-12-05T08:59:48.398Z,9.88
2018-12-05T09:02:23.566Z,10.55
2018-12-05T09:04:52.004Z,9.88
2018-12-05T09:07:20.422Z,10.00
2018-12-05T09:09:48.829Z,9.23
2018-12-05T09:12:17.280Z,9.28
2018-12-05T09:14:45.758Z,9.15
2018-12-05T09:17:14.181Z,9.40
2018-12-05T09:19:42.602Z,10.10
2018-12-05T09:22:11.045Z,11.68
2018-12-05T09:24:39.456Z,9.30
2018-12-05T09:27:07.875Z,9.50
2018-12-05T09:29:37.124Z,12.35
2018-12-05T09:32:05.587Z,10.85
2018-12-05T09:34:34.036Z,9.78
2018-12-05T09:37:02.449Z,10.98
2018-12-05T09:39:30.880Z,10.10
2018-12-05T09:41:59.338Z,10.28
2018-12-05T09:44:27.796Z,12.15
2018-12-05T09:46:56.254Z,10.63
2018-12-05T09:49:24.657Z,11.83
2018-12-05T09:51:53.110Z,9.73
2018-12-05T09:54:21.525Z,11.25
2018-12-05T09:56:49.971Z,9.93
2018-12-05T09:59:18.387Z,10.28
2018-12-05T10:01:46.962Z,10.98
2018-12-05T10:04:15.393Z,12.90
2018-12-05T10:06:43.810Z,12.23
2018-12-05T10:09:12.297Z,13.40
2018-12-05T10:11:40.755Z,10.95
2018-12-05T10:14:09.212Z,11.30
2018-12-05T10:16:37.663Z,11.80
2018-12-05T10:19:06.208Z,11.57
2018-12-05T10:21:34.629Z,11.00
2018-12-05T10:24:03.215Z,11.68
2018-12-05T10:26:31.672Z,10.83
2018-12-05T10:29:00.107Z,12.80
2018-12-05T10:31:28.496Z,14.67
2018-12-05T10:33:56.911Z,12.37
2018-12-05T10:36:25.324Z,14.30
2018-12-05T10:38:53.764Z,13.60
2018-12-05T10:41:22.207Z,13.40
2018-12-05T10:43:50.644Z,13.03
2018-12-05T10:46:19.394Z,10.20
2018-12-05T10:48:47.815Z,12.90
2018-12-05T10:51:16.276Z,12.23
2018-12-05T10:53:44.702Z,10.67
2018-12-05T10:56:13.132Z,12.97
2018-12-05T10:58:41.772Z,14.23
2018-12-05T11:01:15.452Z,11.30
2018-12-05T11:03:43.883Z,15.90
2018-12-05T11:06:17.608Z,12.60
2018-12-05T11:08:51.215Z,8.90
2018-12-05T11:11:24.838Z,11.60
2018-12-05T11:13:58.734Z,12.30
2018-12-05T11:16:32.589Z,14.50
2018-12-05T11:19:06.278Z,12.97
2018-12-05T11:21:39.933Z,12.07
2018-12-05T11:24:12.493Z,11.63
2018-12-05T11:26:41.167Z,12.40
2018-12-05T11:29:09.951Z,12.23
2018-12-05T11:31:38.412Z,12.77
2018-12-05T11:34:06.874Z,13.00
2018-12-05T11:36:35.319Z,12.87
2018-12-05T11:39:05.233Z,10.53
2018-12-05T11:41:33.657Z,12.20
2018-12-05T11:44:02.084Z,12.40
2018-12-05T11:46:30.525Z,14.27
2018-12-05T11:48:58.968Z,14.03
2018-12-05T11:51:27.533Z,12.60
2018-12-05T11:53:56.056Z,14.20
2018-12-05T11:56:24.469Z,12.37
2018-12-05T11:58:52.921Z,13.50
2018-12-05T12:01:21.359Z,12.43
2018-12-05T12:03:50.624Z,12.43
2018-12-05T12:06:19.100Z,13.20
2018-12-05T12:08:47.524Z,11.73
2018-12-05T12:11:16.219Z,11.17
2018-12-05T12:13:44.639Z,12.87
2018-12-05T12:16:13.112Z,12.70
2018-12-05T12:18:41.563Z,13.00
2018-12-05T12:21:10.124Z,13.07
2018-12-05T12:23:38.604Z,13.20
2018-12-05T12:26:07.117Z,13.00
2018-12-05T12:28:35.551Z,12.37
2018-12-05T12:31:04.015Z,10.90
2018-12-05T12:33:32.449Z,13.30
2018-12-05T12:36:00.875Z,11.97
2018-12-05T12:38:29.318Z,12.10
2018-12-05T12:40:57.801Z,11.13
2018-12-05T12:43:26.216Z,10.40
2018-12-05T12:45:54.684Z,13.07
2018-12-05T12:48:23.100Z,11.70
2018-12-05T12:50:51.531Z,11.90
2018-12-05T12:53:19.972Z,12.30
2018-12-05T12:55:48.405Z,11.40
2018-12-05T12:58:16.830Z,10.60
2018-12-05T13:00:45.256Z,11.30
2018-12-05T13:03:13.708Z,11.80
2018-12-05T13:05:42.132Z,11.57
2018-12-05T13:08:10.560Z,11.13
2018-12-05T13:10:39.279Z,10.60
2018-12-05T13:13:07.718Z,11.10
2018-12-05T13:15:36.153Z,9.90
2018-12-05T13:18:04.596Z,12.87
2018-12-05T13:20:33.029Z,10.90
2018-12-05T13:23:01.511Z,10.37
2018-12-05T13:25:29.911Z,12.00
2018-12-05T13:27:58.347Z,13.77
2018-12-05T13:30:26.772Z,11.93
2018-12-05T13:32:55.344Z,13.90
2018-12-05T13:35:23.772Z,13.50
2018-12-05T13:37:52.198Z,11.77
2018-12-05T13:40:20.647Z,14.70
2018-12-05T13:42:49.270Z,13.57
2018-12-05T13:45:17.900Z,13.63
2018-12-05T13:47:46.342Z,11.90
2018-12-05T13:50:14.879Z,11.63
2018-12-05T13:52:43.309Z,11.47
2018-12-05T13:55:11.724Z,9.80
2018-12-05T13:57:40.256Z,13.07
2018-12-05T14:00:09.327Z,13.00
2018-12-05T14:02:37.812Z,10.73
2018-12-05T14:05:06.464Z,14.87
2018-12-05T14:07:34.900Z,13.70
2018-12-05T14:10:03.477Z,12.53
2018-12-05T14:12:36.144Z,12.73
2018-12-05T14:15:05.011Z,13.40
2018-12-05T14:17:33.427Z,13.53
2018-12-05T14:20:08.912Z,12.90
2018-12-05T14:22:37.352Z,13.60
2018-12-05T14:25:07.377Z,14.07
2018-12-05T14:27:35.861Z,12.57
2018-12-05T14:30:05.435Z,15.57
2018-12-05T14:32:33.886Z,13.03
2018-12-05T14:35:02.377Z,14.17
2018-12-05T14:37:30.784Z,12.57
2018-12-05T14:39:59.220Z,14.00
2018-12-05T14:42:27.686Z,13.50
2018-12-05T14:44:56.151Z,14.83
2018-12-05T14:47:24.561Z,12.50
2018-12-05T14:49:53.022Z,14.43
2018-12-05T14:52:21.445Z,13.60
2018-12-05T14:54:49.964Z,13.27
2018-12-05T14:57:18.420Z,14.30
2018-12-05T14:59:46.885Z,12.93
2018-12-05T15:02:15.307Z,13.60
2018-12-05T15:04:43.771Z,14.83
2018-12-05T15:07:12.277Z,14.17
2018-12-05T15:09:40.704Z,14.07
2018-12-05T15:12:09.127Z,14.40
2018-12-05T15:14:37.533Z,15.23
2018-12-05T15:17:05.964Z,14.30
2018-12-05T15:19:34.417Z,12.53
2018-12-05T15:22:02.995Z,11.53
2018-12-05T15:24:31.403Z,13.70
2018-12-05T15:26:59.877Z,14.77
2018-12-05T15:29:28.540Z,13.50
2018-12-05T15:31:57.041Z,14.80
2018-12-05T15:34:25.553Z,13.90
2018-12-05T15:36:53.977Z,15.43
2018-12-05T15:39:22.384Z,14.73
2018-12-05T15:41:50.808Z,15.70
2018-12-05T15:44:19.251Z,14.87
2018-12-05T15:46:54.259Z,15.20
2018-12-05T15:49:22.698Z,15.30
2018-12-05T15:51:51.130Z,14.90
2018-12-05T15:54:19.582Z,15.53
2018-12-05T15:56:48.007Z,15.50
2018-12-05T15:59:16.407Z,16.20
2018-12-05T16:01:45.073Z,17.30
2018-12-05T16:04:13.508Z,15.07
2018-12-05T16:06:41.918Z,13.80
2018-12-05T16:09:10.359Z,16.97
2018-12-05T16:11:38.813Z,14.83
2018-12-05T16:14:07.305Z,13.87
2018-12-05T16:16:35.700Z,14.47
2018-12-05T16:19:04.161Z,16.80
2018-12-05T16:21:32.574Z,15.03
2018-12-05T16:24:01.123Z,15.07
2018-12-05T16:26:29.539Z,15.03
2018-12-05T16:28:57.973Z,14.33
2018-12-05T16:31:26.389Z,15.67
2018-12-05T16:33:56.100Z,11.80
2018-12-05T16:36:24.561Z,14.63
2018-12-05T16:38:52.961Z,16.73
2018-12-05T16:41:21.499Z,15.80
2018-12-05T16:43:49.916Z,15.67
2018-12-05T16:46:18.404Z,14.63
2018-12-05T16:48:46.863Z,17.63
2018-12-05T16:51:15.336Z,14.53
2018-12-05T16:53:43.747Z,16.90
2018-12-05T16:56:12.759Z,15.80
2018-12-05T16:58:41.272Z,16.27
2018-12-05T17:01:09.742Z,15.07
2018-12-05T17:03:38.220Z,16.70
2018-12-05T17:06:07.629Z,14.87
2018-12-05T17:08:37.020Z,16.07
2018-12-05T17:11:12.127Z,15.20
2018-12-05T17:13:42.509Z,15.73
2018-12-05T17:16:17.714Z,17.60
2018-12-05T17:18:42.051Z,16.40
2018-12-05T17:21:10.702Z,17.00
2018-12-05T17:23:39.450Z,17.67
2018-12-05T17:26:08.072Z,15.10
2018-12-05T17:28:37.126Z,15.67
2018-12-05T17:31:05.544Z,17.50
2018-12-05T17:33:33.999Z,14.83
2018-12-05T17:36:02.392Z,17.27
2018-12-05T17:38:30.819Z,16.60
2018-12-05T17:40:59.308Z,14.70
2018-12-05T17:43:27.750Z,17.30
2018-12-05T17:45:56.151Z,17.13
2018-12-05T17:48:24.593Z,17.67
2018-12-05T17:50:53.034Z,17.80
2018-12-05T17:53:21.478Z,16.83
2018-12-05T17:55:49.930Z,14.60
2018-12-05T17:58:18.329Z,16.73
2018-12-05T18:00:46.807Z,14.90
2018-12-05T18:03:15.250Z,14.77
2018-12-05T18:05:43.661Z,16.30
2018-12-05T18:08:12.112Z,15.63
2018-12-05T18:10:40.568Z,14.47
2018-12-05T18:13:09.012Z,15.27
2018-12-05T18:15:37.436Z,14.90
2018-12-05T18:18:06.935Z,14.40
2018-12-05T18:20:35.341Z,14.83
2018-12-05T18:23:04.276Z,17.60
2018-12-05T18:25:34.071Z,13.70
2018-12-05T18:28:02.507Z,14.33
2018-12-05T18:30:31.068Z,14.67
2018-12-05T18:32:59.488Z,11.53
2018-12-05T18:35:27.945Z,13.17
2018-12-05T18:37:56.401Z,14.13
2018-12-05T18:40:24.860Z,13.43
2018-12-05T18:42:53.521Z,14.60
2018-12-05T18:45:21.958Z,14.20
2018-12-05T18:47:50.411Z,12.93
2018-12-05T18:50:18.828Z,14.10
2018-12-05T18:52:47.263Z,13.70
2018-12-05T18:55:16.213Z,12.80
2018-12-05T18:57:44.645Z,13.77
2018-12-05T19:00:13.231Z,9.93
2018-12-05T19:02:41.969Z,13.87
2018-12-05T19:05:10.618Z,12.30
2018-12-05T19:07:39.048Z,13.10
2018-12-05T19:10:07.672Z,13.33
2018-12-05T19:12:36.079Z,13.53
2018-12-05T19:15:05.104Z,13.63
2018-12-05T19:17:33.570Z,12.13
2018-12-05T19:20:02.002Z,14.90
2018-12-05T19:22:30.403Z,14.33
2018-12-05T19:24:58.833Z,11.17
2018-12-05T19:27:27.390Z,14.43
2018-12-05T19:29:55.795Z,14.60
2018-12-05T19:32:24.294Z,11.40
2018-12-05T19:34:53.709Z,13.37
2018-12-05T19:37:22.126Z,13.73
2018-12-05T19:39:50.565Z,13.27
2018-12-05T19:42:18.976Z,14.97
2018-12-05T19:44:47.426Z,12.37
2018-12-05T19:47:15.871Z,16.00
2018-12-05T19:49:44.293Z,15.43
2018-12-05T19:52:12.725Z,13.67
2018-12-05T19:54:41.149Z,15.67
2018-12-05T19:57:09.648Z,12.57
2018-12-05T19:59:38.114Z,16.50
2018-12-05T20:02:06.684Z,15.63
2018-12-05T20:04:35.330Z,15.50
2018-12-05T20:07:03.865Z,15.60
2018-12-05T20:09:32.296Z,16.20
2018-12-05T20:12:00.710Z,15.63
2018-12-05T20:14:29.664Z,15.27
2018-12-05T20:16:58.603Z,15.80
2018-12-05T20:19:27.173Z,16.40
2018-12-05T20:21:55.622Z,14.97
2018-12-05T20:24:24.343Z,14.40
2018-12-05T20:26:52.766Z,15.67
2018-12-05T20:29:21.187Z,15.13
2018-12-05T20:31:49.668Z,15.83
2018-12-05T20:34:18.094Z,14.23
2018-12-05T20:36:46.527Z,16.23
2018-12-05T20:39:14.971Z,16.73
2018-12-05T20:41:43.441Z,16.93
2018-12-05T20:44:12.025Z,15.47
2018-12-05T20:46:40.452Z,15.60
2018-12-05T20:49:08.860Z,15.00
2018-12-05T20:51:37.293Z,14.87
2018-12-05T20:54:05.740Z,15.53
2018-12-05T20:56:34.180Z,15.97
2018-12-05T20:59:02.605Z,15.63
2018-12-05T21:01:31.190Z,14.07
2018-12-05T21:03:59.611Z,15.67
2018-12-05T21:06:28.028Z,15.40
2018-12-05T21:08:56.586Z,17.17
2018-12-05T21:11:25.009Z,14.40
2018-12-05T21:13:53.434Z,15.10
2018-12-05T21:16:22.003Z,16.60
2018-12-05T21:18:50.530Z,15.30
2018-12-05T21:21:18.956Z,16.10
2018-12-05T21:23:47.401Z,16.10
2018-12-05T21:26:15.819Z,15.50
2018-12-05T21:28:44.242Z,15.47
2018-12-05T21:31:12.860Z,16.23
2018-12-05T21:33:41.309Z,16.53
2018-12-05T21:36:09.705Z,13.67
2018-12-05T21:38:38.180Z,16.87
2018-12-05T21:41:06.629Z,15.30
2018-12-05T21:43:35.297Z,15.00
2018-12-05T21:46:03.888Z,15.40
2018-12-05T21:48:32.291Z,15.10
2018-12-05T21:51:00.781Z,16.87
2018-12-05T21:53:29.249Z,17.67
2018-12-05T21:55:57.661Z,17.50
2018-12-05T21:58:26.103Z,15.90
2018-12-05T22:00:59.464Z,15.67
2018-12-05T22:03:27.930Z,15.40
2018-12-05T22:05:56.365Z,15.40
2018-12-05T22:08:24.809Z,16.90
2018-12-05T22:10:53.214Z,16.57
2018-12-05T22:13:21.633Z,15.53
2018-12-05T22:15:50.066Z,17.07
2018-12-05T22:18:18.471Z,17.30
2018-12-05T22:20:46.917Z,16.30
2018-12-05T22:23:15.359Z,17.93
2018-12-05T22:25:43.785Z,19.43
2018-12-05T22:28:12.228Z,18.10
2018-12-05T22:30:40.701Z,14.77
2018-12-05T22:33:09.111Z,16.00
2018-12-05T22:35:37.525Z,17.30
2018-12-05T22:38:05.962Z,15.87
2018-12-05T22:40:34.420Z,16.47
2018-12-05T22:43:02.830Z,16.47
2018-12-05T22:45:31.262Z,17.37
2018-12-05T22:47:59.653Z,18.23
2018-12-05T22:50:28.069Z,17.60
2018-12-05T22:52:56.602Z,15.43
2018-12-05T22:55:25.003Z,17.07
2018-12-05T22:57:53.440Z,19.30
2018-12-05T23:00:25.418Z,16.13
2018-12-05T23:02:53.884Z,19.43
2018-12-05T23:05:22.316Z,15.00
2018-12-05T23:07:50.749Z,19.50
2018-12-05T23:10:19.165Z,20.03
2018-12-05T23:12:47.573Z,20.10
2018-12-05T23:15:16.032Z,20.90
2018-12-05T23:17:44.447Z,18.40
2018-12-05T23:20:12.987Z,20.77
2018-12-05T23:22:41.951Z,19.90
2018-12-05T23:25:10.372Z,19.93
2018-12-05T23:27:38.793Z,19.00
2018-12-05T23:30:07.492Z,16.90
2018-12-05T23:32:35.901Z,21.20
2018-12-05T23:35:04.476Z,21.23
2018-12-05T23:37:32.888Z,20.17
2018-12-05T23:40:01.293Z,20.87
2018-12-05T23:42:29.689Z,20.33
2018-12-05T23:44:58.119Z,20.00
2018-12-05T23:47:26.536Z,20.90
2018-12-05T23:49:54.935Z,18.03
2018-12-05T23:52:23.358Z,21.00
2018-12-05T23:54:51.770Z,19.10
2018-12-05T23:57:20.190Z,18.10
2018-12-05T23:59:48.628Z,20.20
